Time;durP1;ratioP1;P1;durP2;ratioP2;P2;SDS_P1;SDS_P2;PMS_P1;PMS_P2;Temp;Humidity;BMP_temperature;BMP_pressure;BME280_temperature;BME280_humidity;BME280_pressure;Samples;Min_cycle;Max_cycle;Signal;HPM_P1;HPM_P2
2023/06/12 04:06:46;;;;;;;;;15.33;15.00;;;;;;;;6116803;46;9999921;-54
2023/06/12 12:08:28;;;;;;;;;16.50;16.50;;;;;;;;6489294;39;9090;-60
2023/06/12 12:14:31;;;;;;;;;16.25;15.00;;;;;;;;6487829;39;9552;-60
2023/06/12 12:20:34;;;;;;;;;9.00;8.50;;;;;;;;6488153;46;8886;-60
2023/06/12 12:26:49;;;;;;;;;17.00;14.25;;;;;;;;6487935;39;8930;-58
2023/06/12 12:32:55;;;;;;;;;10.50;10.50;;;;;;;;6489225;39;8835;-59
2023/06/12 12:38:58;;;;;;;;;15.50;12.25;;;;;;;;6487889;46;8958;-59
2023/06/12 12:45:00;;;;;;;;;9.75;9.75;;;;;;;;6487217;46;9033;-59
2023/06/12 12:51:03;;;;;;;;;11.75;11.75;;;;;;;;6489323;31;8848;-59
2023/06/12 12:57:12;;;;;;;;;17.25;16.25;;;;;;;;6306456;46;10001318;-58
2023/06/12 13:03:16;;;;;;;;;12.00;12.00;;;;;;;;6487751;46;8948;-60
2023/06/12 13:09:19;;;;;;;;;14.00;12.00;;;;;;;;6487465;39;8979;-59
2023/06/12 13:15:21;;;;;;;;;8.75;8.75;;;;;;;;6485937;31;9617;-59
2023/06/12 13:21:23;;;;;;;;;14.00;14.00;;;;;;;;6487484;39;8836;-59
2023/06/12 13:27:26;;;;;;;;;12.25;12.00;;;;;;;;6487601;46;8969;-61
2023/06/12 13:33:29;;;;;;;;;14.00;14.00;;;;;;;;6486792;39;8898;-58
2023/06/12 13:39:32;;;;;;;;;11.00;10.00;;;;;;;;6487577;46;8850;-59
2023/06/12 13:45:35;;;;;;;;;12.00;12.00;;;;;;;;6488147;39;9569;-59
2023/06/12 13:51:38;;;;;;;;;13.75;13.75;;;;;;;;6487474;31;8838;-59
2023/06/12 13:57:42;;;;;;;;;12.50;11.75;;;;;;;;6489919;31;8887;-59
2023/06/12 14:03:45;;;;;;;;;14.50;14.00;;;;;;;;6489121;39;8902;-61
2023/06/12 14:09:47;;;;;;;;;11.25;11.25;;;;;;;;6490608;47;8839;-60
2023/06/12 14:15:52;;;;;;;;;12.00;12.00;;;;;;;;6490264;39;8882;-60
2023/06/12 14:21:55;;;;;;;;;12.00;12.00;;;;;;;;6491490;39;8917;-59
2023/06/12 14:27:57;;;;;;;;;10.75;10.25;;;;;;;;6492490;39;8926;-59
2023/06/12 14:34:02;;;;;;;;;10.75;9.50;;;;;;;;6492414;39;8928;-59
2023/06/12 14:40:05;;;;;;;;;16.75;12.00;;;;;;;;6491850;39;8831;-59
2023/06/12 14:46:08;;;;;;;;;13.50;13.50;;;;;;;;6492063;39;8936;-61
2023/06/12 14:52:12;;;;;;;;;19.00;16.00;;;;;;;;6491820;39;9452;-59
2023/06/12 14:58:33;;;;;;;;;11.75;10.75;;;;;;;;6491909;46;8914;-59
2023/06/12 15:04:35;;;;;;;;;16.00;15.00;;;;;;;;6491349;31;8949;-61
2023/06/12 15:10:38;;;;;;;;;12.25;11.00;;;;;;;;6493257;39;8917;-61
2023/06/12 15:16:40;;;;;;;;;13.75;13.75;;;;;;;;6492168;31;9561;-60
2023/06/12 15:22:43;;;;;;;;;17.50;14.50;;;;;;;;6492183;31;8968;-61
2023/06/12 15:28:46;;;;;;;;;9.75;8.00;;;;;;;;6490864;46;8905;-61
2023/06/12 15:34:49;;;;;;;;;8.75;8.75;;;;;;;;6491820;39;8893;-60
2023/06/12 15:40:52;;;;;;;;;13.00;11.50;;;;;;;;6492258;31;9524;-62
2023/06/12 15:46:55;;;;;;;;;6.75;6.75;;;;;;;;6492016;39;8854;-61
2023/06/12 15:53:01;;;;;;;;;6.00;6.00;;;;;;;;6493097;31;8806;-60
2023/06/12 15:59:03;;;;;;;;;12.00;9.00;;;;;;;;6490832;39;8867;-60
2023/06/12 16:05:07;;;;;;;;;6.50;6.50;;;;;;;;6491506;31;9046;-59
2023/06/12 16:11:09;;;;;;;;;4.25;4.25;;;;;;;;6493694;39;9545;-60
2023/06/12 16:17:12;;;;;;;;;6.00;6.00;;;;;;;;6491595;46;8874;-59
2023/06/12 16:23:17;;;;;;;;;7.00;6.25;;;;;;;;6493057;39;9500;-60
2023/06/12 16:29:21;;;;;;;;;10.50;10.50;;;;;;;;6493229;31;8969;-61
2023/06/12 16:35:23;;;;;;;;;5.25;5.25;;;;;;;;6490075;46;9016;-60
2023/06/12 16:41:27;;;;;;;;;6.00;6.00;;;;;;;;6492104;46;8870;-61
2023/06/12 16:47:30;;;;;;;;;6.00;5.50;;;;;;;;6492015;39;9438;-60
2023/06/12 16:53:32;;;;;;;;;4.50;4.50;;;;;;;;6492371;39;8847;-60
2023/06/12 16:59:34;;;;;;;;;5.25;5.25;;;;;;;;6491562;39;8993;-60
2023/06/12 17:05:37;;;;;;;;;5.75;5.75;;;;;;;;6490588;39;8984;-59
2023/06/12 17:11:40;;;;;;;;;7.67;7.67;;;;;;;;6492197;39;8893;-60
2023/06/12 17:17:42;;;;;;;;;7.67;6.00;;;;;;;;6491544;31;8893;-59
2023/06/12 17:23:45;;;;;;;;;5.00;5.00;;;;;;;;6492063;39;8823;-60
2023/06/12 17:29:48;;;;;;;;;5.25;4.75;;;;;;;;6490428;46;8874;-60
2023/06/12 17:35:51;;;;;;;;;5.00;5.00;;;;;;;;6491314;31;8839;-60
2023/06/12 17:41:55;;;;;;;;;7.00;7.00;;;;;;;;6491474;39;8850;-60
2023/06/12 17:47:59;;;;;;;;;7.75;7.00;;;;;;;;6491064;39;9585;-61
2023/06/12 17:54:02;;;;;;;;;6.33;5.00;;;;;;;;6492046;39;8913;-60
2023/06/12 18:00:07;;;;;;;;;6.67;5.67;;;;;;;;6492652;46;8850;-60
2023/06/12 18:06:10;;;;;;;;;6.00;6.00;;;;;;;;6494489;46;8958;-60
2023/06/12 18:12:17;;;;;;;;;9.67;6.33;;;;;;;;6496456;31;8878;-60
2023/06/12 18:18:20;;;;;;;;;5.33;5.00;;;;;;;;6514420;31;135755;-59
2023/06/12 18:24:23;;;;;;;;;6.00;5.00;;;;;;;;6496219;39;8865;-60
2023/06/12 18:30:26;;;;;;;;;5.67;3.67;;;;;;;;6495170;46;8860;-60
2023/06/12 18:36:28;;;;;;;;;4.00;4.00;;;;;;;;6495978;39;8923;-60
2023/06/12 18:42:30;;;;;;;;;4.67;4.67;;;;;;;;6495646;39;9040;-58
2023/06/12 18:48:33;;;;;;;;;4.00;3.00;;;;;;;;6495357;46;8914;-60
2023/06/12 18:54:36;;;;;;;;;4.00;4.00;;;;;;;;6494636;39;9567;-59
2023/06/12 19:00:38;;;;;;;;;5.33;5.00;;;;;;;;6494887;39;8896;-59
2023/06/12 19:06:46;;;;;;;;;4.00;4.00;;;;;;;;6493645;39;8948;-63
2023/06/12 19:12:48;;;;;;;;;3.00;3.00;;;;;;;;6493383;46;8871;-60
2023/06/12 19:18:54;;;;;;;;;5.00;5.00;;;;;;;;6492455;39;9034;-60
2023/06/12 19:25:05;;;;;;;;;5.33;5.33;;;;;;;;6493550;39;8978;-60
2023/06/12 19:31:08;;;;;;;;;5.00;4.00;;;;;;;;6491868;46;8843;-60
2023/06/12 19:37:10;;;;;;;;;5.67;4.33;;;;;;;;6493697;39;8848;-61
2023/06/12 19:43:15;;;;;;;;;3.00;3.00;;;;;;;;6492028;39;8899;-59
2023/06/12 19:49:19;;;;;;;;;3.33;3.00;;;;;;;;6492464;39;8872;-60
2023/06/12 19:55:25;;;;;;;;;3.00;3.00;;;;;;;;6491649;39;8979;-58
2023/06/12 20:01:31;;;;;;;;;4.00;4.00;;;;;;;;6491508;46;8859;-60
2023/06/12 20:07:34;;;;;;;;;3.33;3.33;;;;;;;;5087701;36;10001645;-60
2023/06/12 20:13:36;;;;;;;;;4.00;4.00;;;;;;;;6491743;39;8908;-59
2023/06/12 20:19:40;;;;;;;;;3.33;3.33;;;;;;;;6491445;46;8864;-60
2023/06/12 20:25:44;;;;;;;;;2.00;2.00;;;;;;;;6491479;39;8904;-59
2023/06/12 20:31:48;;;;;;;;;4.00;4.00;;;;;;;;6489733;39;8907;-60
2023/06/12 20:37:53;;;;;;;;;2.00;2.00;;;;;;;;6491160;39;8857;-59
2023/06/12 20:43:56;;;;;;;;;3.00;2.00;;;;;;;;6489887;46;8901;-59
2023/06/12 20:49:59;;;;;;;;;5.00;5.00;;;;;;;;6490231;46;8864;-59
2023/06/12 20:56:04;;;;;;;;;2.00;2.00;;;;;;;;6491307;31;8935;-59
2023/06/12 21:02:08;;;;;;;;;5.00;3.00;;;;;;;;6490334;31;8912;-58
2023/06/12 21:08:13;;;;;;;;;4.67;3.00;;;;;;;;6490418;39;8931;-59
2023/06/12 21:14:18;;;;;;;;;3.00;3.00;;;;;;;;6490286;39;8883;-59
2023/06/12 21:20:23;;;;;;;;;2.00;2.00;;;;;;;;6490426;39;9572;-61
2023/06/12 21:26:29;;;;;;;;;3.33;2.67;;;;;;;;6489426;39;9054;-60
2023/06/12 21:32:32;;;;;;;;;2.00;2.00;;;;;;;;6488229;46;8939;-60
2023/06/12 21:38:35;;;;;;;;;3.00;3.00;;;;;;;;6490064;39;8879;-60
2023/06/12 21:44:38;;;;;;;;;2.00;2.00;;;;;;;;6490203;31;9540;-59
2023/06/12 21:50:40;;;;;;;;;2.00;1.67;;;;;;;;6490173;39;8883;-59
2023/06/12 21:56:43;;;;;;;;;2.67;2.00;;;;;;;;6489951;39;9502;-59
2023/06/12 22:02:46;;;;;;;;;2.00;2.00;;;;;;;;6489077;47;8907;-60
2023/06/12 22:08:49;;;;;;;;;3.00;3.00;;;;;;;;6490161;39;8891;-59
2023/06/12 22:14:51;;;;;;;;;3.00;3.00;;;;;;;;6489314;39;8895;-60
2023/06/12 22:20:54;;;;;;;;;4.00;4.00;;;;;;;;6488942;39;8871;-60
2023/06/12 22:26:58;;;;;;;;;4.00;3.00;;;;;;;;6489446;31;8966;-59
2023/06/12 22:33:00;;;;;;;;;4.00;4.00;;;;;;;;6489687;39;8892;-60
2023/06/12 22:39:04;;;;;;;;;3.00;3.00;;;;;;;;6489314;39;8958;-59
2023/06/12 22:45:07;;;;;;;;;4.00;3.33;;;;;;;;6489479;46;8942;-61
2023/06/12 22:51:13;;;;;;;;;4.00;4.00;;;;;;;;6491345;39;9627;-60
2023/06/12 22:57:15;;;;;;;;;2.67;2.67;;;;;;;;6490886;46;8875;-60
2023/06/12 23:03:17;;;;;;;;;5.33;5.33;;;;;;;;6490669;39;9018;-60
2023/06/12 23:09:23;;;;;;;;;3.67;3.67;;;;;;;;6490996;39;8915;-58
2023/06/12 23:15:26;;;;;;;;;3.00;3.00;;;;;;;;6490964;46;8888;-58
2023/06/12 23:21:29;;;;;;;;;3.00;3.00;;;;;;;;6490372;46;8871;-59
2023/06/12 23:27:33;;;;;;;;;3.33;3.33;;;;;;;;6490483;39;8907;-58
2023/06/12 23:33:35;;;;;;;;;2.00;2.00;;;;;;;;6490667;31;8907;-59
2023/06/12 23:39:38;;;;;;;;;3.67;3.67;;;;;;;;6490018;39;8895;-61
2023/06/12 23:45:42;;;;;;;;;4.00;4.00;;;;;;;;6490003;39;8911;-59
2023/06/12 23:51:45;;;;;;;;;6.33;6.33;;;;;;;;6491280;39;8895;-58
2023/06/12 23:57:51;;;;;;;;;7.00;3.67;;;;;;;;6490118;39;8887;-60
